Buchans, Canada
Current Conditions -  °F | °C
As of 6:00 AM on Friday 31 Oct 2014 (Local Time) from CYDF Reporting Station
Light Rain Light Rain  
Wind Chill: 41°   Ceiling: 2600
Heat Index: 41°   Visibility: 10mi
Dew Point: 39°   Wind: 0mph
Humidity: 93%   Direction: NA
Pressure: 29.78"   Gusts: NA
Location:  48.82°N, 56.87°W
Report Text: CYDF 310800Z 00000KT 10SM -RA OVC026 05/04 A2978 RMK SC8 SLP086
Loading
Personal Weather Stations






























Interactive Weather Map
Tropical Storm Tracking
New forecast layout! Learn more

10-Day Weather Forecast

Advertisements
Track Severe Weather on mobile